sensor_id;sensor_type;location;lat;lon;timestamp;P1;durP1;ratioP1;P2;durP2;ratioP2
58071;SDS011;60383;46.626;18.866;2023-03-23T00:02:24;14.48;;;9.40;;
58071;SDS011;60383;46.626;18.866;2023-03-23T00:04:51;12.02;;;8.90;;
58071;SDS011;60383;46.626;18.866;2023-03-23T00:07:18;12.85;;;9.65;;
58071;SDS011;60383;46.626;18.866;2023-03-23T00:09:49;13.40;;;9.02;;
58071;SDS011;60383;46.626;18.866;2023-03-23T00:12:22;11.88;;;8.90;;
58071;SDS011;60383;46.626;18.866;2023-03-23T00:15:04;12.38;;;8.73;;
58071;SDS011;60383;46.626;18.866;2023-03-23T00:17:32;13.93;;;9.85;;
58071;SDS011;60383;46.626;18.866;2023-03-23T00:20:01;13.05;;;9.43;;
58071;SDS011;60383;46.626;18.866;2023-03-23T00:22:30;13.73;;;9.43;;
58071;SDS011;60383;46.626;18.866;2023-03-23T00:24:55;14.43;;;9.98;;
58071;SDS011;60383;46.626;18.866;2023-03-23T00:27:21;12.77;;;8.85;;
58071;SDS011;60383;46.626;18.866;2023-03-23T00:29:51;10.70;;;8.57;;
58071;SDS011;60383;46.626;18.866;2023-03-23T00:32:20;12.45;;;9.55;;
58071;SDS011;60383;46.626;18.866;2023-03-23T00:34:52;18.08;;;10.15;;
58071;SDS011;60383;46.626;18.866;2023-03-23T00:37:23;12.88;;;9.15;;
58071;SDS011;60383;46.626;18.866;2023-03-23T00:39:49;12.85;;;8.55;;
58071;SDS011;60383;46.626;18.866;2023-03-23T00:42:16;10.95;;;8.20;;
58071;SDS011;60383;46.626;18.866;2023-03-23T00:44:42;11.80;;;9.20;;
58071;SDS011;60383;46.626;18.866;2023-03-23T00:47:11;9.63;;;7.38;;
58071;SDS011;60383;46.626;18.866;2023-03-23T00:49:40;12.05;;;8.68;;
58071;SDS011;60383;46.626;18.866;2023-03-23T00:52:06;10.25;;;7.85;;
58071;SDS011;60383;46.626;18.866;2023-03-23T00:54:32;10.30;;;7.80;;
58071;SDS011;60383;46.626;18.866;2023-03-23T00:56:59;10.18;;;7.82;;
58071;SDS011;60383;46.626;18.866;2023-03-23T00:59:25;11.25;;;7.95;;
58071;SDS011;60383;46.626;18.866;2023-03-23T01:01:50;11.07;;;8.10;;
58071;SDS011;60383;46.626;18.866;2023-03-23T01:04:16;9.68;;;7.88;;
58071;SDS011;60383;46.626;18.866;2023-03-23T01:06:42;10.90;;;7.80;;
58071;SDS011;60383;46.626;18.866;2023-03-23T01:09:11;11.85;;;8.25;;
58071;SDS011;60383;46.626;18.866;2023-03-23T01:11:44;11.90;;;7.18;;
58071;SDS011;60383;46.626;18.866;2023-03-23T01:14:11;13.20;;;9.35;;
58071;SDS011;60383;46.626;18.866;2023-03-23T01:16:38;11.45;;;8.32;;
58071;SDS011;60383;46.626;18.866;2023-03-23T01:19:04;12.07;;;7.82;;
58071;SDS011;60383;46.626;18.866;2023-03-23T01:21:29;11.55;;;8.20;;
58071;SDS011;60383;46.626;18.866;2023-03-23T01:23:55;11.48;;;8.43;;
58071;SDS011;60383;46.626;18.866;2023-03-23T01:26:22;13.00;;;8.82;;
58071;SDS011;60383;46.626;18.866;2023-03-23T01:28:48;11.75;;;8.80;;
58071;SDS011;60383;46.626;18.866;2023-03-23T01:31:18;11.63;;;7.88;;
58071;SDS011;60383;46.626;18.866;2023-03-23T01:33:45;10.80;;;8.10;;
58071;SDS011;60383;46.626;18.866;2023-03-23T01:36:15;11.57;;;8.57;;
58071;SDS011;60383;46.626;18.866;2023-03-23T01:38:43;11.45;;;8.43;;
58071;SDS011;60383;46.626;18.866;2023-03-23T01:41:11;10.30;;;8.02;;
58071;SDS011;60383;46.626;18.866;2023-03-23T01:43:53;12.25;;;8.65;;
58071;SDS011;60383;46.626;18.866;2023-03-23T01:46:30;12.05;;;8.30;;
58071;SDS011;60383;46.626;18.866;2023-03-23T01:48:59;10.77;;;8.10;;
58071;SDS011;60383;46.626;18.866;2023-03-23T01:51:34;12.05;;;8.88;;
58071;SDS011;60383;46.626;18.866;2023-03-23T01:54:21;11.52;;;8.48;;
58071;SDS011;60383;46.626;18.866;2023-03-23T01:56:55;11.43;;;8.43;;
58071;SDS011;60383;46.626;18.866;2023-03-23T01:59:24;10.95;;;8.38;;
58071;SDS011;60383;46.626;18.866;2023-03-23T02:01:53;11.35;;;7.95;;
58071;SDS011;60383;46.626;18.866;2023-03-23T02:04:19;11.02;;;8.15;;
58071;SDS011;60383;46.626;18.866;2023-03-23T02:06:46;12.18;;;8.55;;
58071;SDS011;60383;46.626;18.866;2023-03-23T02:09:12;11.75;;;8.23;;
58071;SDS011;60383;46.626;18.866;2023-03-23T02:11:42;9.98;;;7.93;;
58071;SDS011;60383;46.626;18.866;2023-03-23T02:14:07;13.13;;;8.82;;
58071;SDS011;60383;46.626;18.866;2023-03-23T02:36:05;17.58;;;11.27;;
58071;SDS011;60383;46.626;18.866;2023-03-23T02:38:43;15.77;;;11.32;;
58071;SDS011;60383;46.626;18.866;2023-03-23T02:41:35;16.83;;;11.25;;
58071;SDS011;60383;46.626;18.866;2023-03-23T02:44:05;17.15;;;11.48;;
58071;SDS011;60383;46.626;18.866;2023-03-23T02:46:32;12.77;;;10.48;;
58071;SDS011;60383;46.626;18.866;2023-03-23T02:49:00;13.60;;;10.07;;
58071;SDS011;60383;46.626;18.866;2023-03-23T02:51:28;15.85;;;10.85;;
58071;SDS011;60383;46.626;18.866;2023-03-23T02:53:55;16.88;;;10.65;;
58071;SDS011;60383;46.626;18.866;2023-03-23T02:56:23;15.68;;;10.98;;
58071;SDS011;60383;46.626;18.866;2023-03-23T02:58:53;16.33;;;11.57;;
58071;SDS011;60383;46.626;18.866;2023-03-23T03:03:51;15.32;;;10.73;;
58071;SDS011;60383;46.626;18.866;2023-03-23T03:06:31;15.48;;;10.88;;
58071;SDS011;60383;46.626;18.866;2023-03-23T03:09:05;14.67;;;11.10;;
58071;SDS011;60383;46.626;18.866;2023-03-23T03:11:46;13.65;;;10.32;;
58071;SDS011;60383;46.626;18.866;2023-03-23T03:16:45;15.15;;;10.68;;
58071;SDS011;60383;46.626;18.866;2023-03-23T03:21:58;14.27;;;10.00;;
58071;SDS011;60383;46.626;18.866;2023-03-23T03:24:25;13.95;;;10.48;;
58071;SDS011;60383;46.626;18.866;2023-03-23T03:26:53;16.52;;;10.73;;
58071;SDS011;60383;46.626;18.866;2023-03-23T03:29:25;15.73;;;11.32;;
58071;SDS011;60383;46.626;18.866;2023-03-23T03:31:54;13.80;;;10.35;;
58071;SDS011;60383;46.626;18.866;2023-03-23T03:34:23;15.25;;;10.82;;
58071;SDS011;60383;46.626;18.866;2023-03-23T03:36:49;15.00;;;10.98;;
58071;SDS011;60383;46.626;18.866;2023-03-23T03:39:17;14.20;;;10.57;;
58071;SDS011;60383;46.626;18.866;2023-03-23T03:41:45;14.65;;;11.23;;
58071;SDS011;60383;46.626;18.866;2023-03-23T03:44:11;18.63;;;11.57;;
58071;SDS011;60383;46.626;18.866;2023-03-23T03:46:37;16.38;;;12.27;;
58071;SDS011;60383;46.626;18.866;2023-03-23T03:49:04;19.42;;;11.27;;
58071;SDS011;60383;46.626;18.866;2023-03-23T03:51:31;17.00;;;11.80;;
58071;SDS011;60383;46.626;18.866;2023-03-23T03:53:58;16.90;;;11.70;;
58071;SDS011;60383;46.626;18.866;2023-03-23T03:56:24;15.80;;;12.07;;
58071;SDS011;60383;46.626;18.866;2023-03-23T03:58:51;15.52;;;12.10;;
58071;SDS011;60383;46.626;18.866;2023-03-23T04:01:18;15.93;;;12.52;;
58071;SDS011;60383;46.626;18.866;2023-03-23T04:03:49;17.05;;;12.27;;
58071;SDS011;60383;46.626;18.866;2023-03-23T04:06:16;15.80;;;11.73;;
58071;SDS011;60383;46.626;18.866;2023-03-23T04:08:42;15.25;;;12.10;;
58071;SDS011;60383;46.626;18.866;2023-03-23T04:11:10;16.73;;;12.20;;
58071;SDS011;60383;46.626;18.866;2023-03-23T04:13:38;18.73;;;12.52;;
58071;SDS011;60383;46.626;18.866;2023-03-23T04:16:04;17.90;;;11.90;;
58071;SDS011;60383;46.626;18.866;2023-03-23T04:18:30;15.88;;;12.13;;
58071;SDS011;60383;46.626;18.866;2023-03-23T04:20:57;16.20;;;12.30;;
58071;SDS011;60383;46.626;18.866;2023-03-23T04:23:24;17.10;;;12.63;;
58071;SDS011;60383;46.626;18.866;2023-03-23T04:25:51;16.60;;;12.55;;
58071;SDS011;60383;46.626;18.866;2023-03-23T04:28:22;19.30;;;12.57;;
58071;SDS011;60383;46.626;18.866;2023-03-23T04:30:48;16.08;;;12.35;;
58071;SDS011;60383;46.626;18.866;2023-03-23T04:33:18;18.13;;;12.63;;
58071;SDS011;60383;46.626;18.866;2023-03-23T04:35:45;15.50;;;12.15;;
58071;SDS011;60383;46.626;18.866;2023-03-23T04:38:13;20.70;;;12.27;;
58071;SDS011;60383;46.626;18.866;2023-03-23T04:40:40;18.10;;;12.45;;
58071;SDS011;60383;46.626;18.866;2023-03-23T04:43:07;16.48;;;12.15;;
58071;SDS011;60383;46.626;18.866;2023-03-23T04:45:34;17.30;;;12.70;;
58071;SDS011;60383;46.626;18.866;2023-03-23T04:48:03;14.73;;;11.32;;
58071;SDS011;60383;46.626;18.866;2023-03-23T04:50:30;15.55;;;11.82;;
58071;SDS011;60383;46.626;18.866;2023-03-23T04:52:58;15.75;;;11.65;;
58071;SDS011;60383;46.626;18.866;2023-03-23T04:55:29;16.08;;;11.50;;
58071;SDS011;60383;46.626;18.866;2023-03-23T04:57:55;16.17;;;12.18;;
58071;SDS011;60383;46.626;18.866;2023-03-23T05:00:25;16.65;;;11.60;;
58071;SDS011;60383;46.626;18.866;2023-03-23T05:02:51;16.17;;;12.57;;
58071;SDS011;60383;46.626;18.866;2023-03-23T05:05:17;19.63;;;14.48;;
58071;SDS011;60383;46.626;18.866;2023-03-23T05:07:44;17.05;;;13.30;;
58071;SDS011;60383;46.626;18.866;2023-03-23T05:10:10;19.20;;;13.60;;
58071;SDS011;60383;46.626;18.866;2023-03-23T05:12:36;17.83;;;13.05;;
58071;SDS011;60383;46.626;18.866;2023-03-23T05:15:03;16.55;;;13.10;;
58071;SDS011;60383;46.626;18.866;2023-03-23T05:17:30;19.83;;;13.10;;
58071;SDS011;60383;46.626;18.866;2023-03-23T05:19:57;17.85;;;13.35;;
58071;SDS011;60383;46.626;18.866;2023-03-23T05:22:23;20.48;;;13.85;;
58071;SDS011;60383;46.626;18.866;2023-03-23T05:24:52;22.15;;;16.10;;
58071;SDS011;60383;46.626;18.866;2023-03-23T05:27:17;28.08;;;17.13;;
58071;SDS011;60383;46.626;18.866;2023-03-23T05:29:44;28.10;;;19.05;;
58071;SDS011;60383;46.626;18.866;2023-03-23T05:32:14;25.83;;;17.92;;
58071;SDS011;60383;46.626;18.866;2023-03-23T05:34:44;25.35;;;17.63;;
58071;SDS011;60383;46.626;18.866;2023-03-23T05:37:09;23.85;;;17.38;;
58071;SDS011;60383;46.626;18.866;2023-03-23T05:39:36;21.17;;;16.02;;
58071;SDS011;60383;46.626;18.866;2023-03-23T05:42:03;19.08;;;13.32;;
58071;SDS011;60383;46.626;18.866;2023-03-23T05:44:29;14.38;;;11.07;;
58071;SDS011;60383;46.626;18.866;2023-03-23T05:46:54;13.13;;;9.93;;
58071;SDS011;60383;46.626;18.866;2023-03-23T05:49:20;16.83;;;11.07;;
58071;SDS011;60383;46.626;18.866;2023-03-23T05:51:45;12.75;;;10.07;;
58071;SDS011;60383;46.626;18.866;2023-03-23T05:54:12;12.00;;;9.93;;
58071;SDS011;60383;46.626;18.866;2023-03-23T05:56:39;15.05;;;10.88;;
58071;SDS011;60383;46.626;18.866;2023-03-23T05:59:05;12.80;;;11.18;;
58071;SDS011;60383;46.626;18.866;2023-03-23T06:01:30;15.63;;;10.70;;
58071;SDS011;60383;46.626;18.866;2023-03-23T06:03:57;15.25;;;11.77;;
58071;SDS011;60383;46.626;18.866;2023-03-23T06:06:23;14.02;;;10.90;;
58071;SDS011;60383;46.626;18.866;2023-03-23T06:08:49;16.05;;;11.82;;
58071;SDS011;60383;46.626;18.866;2023-03-23T06:11:15;16.90;;;12.27;;
58071;SDS011;60383;46.626;18.866;2023-03-23T06:13:41;17.90;;;12.60;;
58071;SDS011;60383;46.626;18.866;2023-03-23T06:16:07;15.95;;;12.80;;
58071;SDS011;60383;46.626;18.866;2023-03-23T06:18:33;17.75;;;13.65;;
58071;SDS011;60383;46.626;18.866;2023-03-23T06:21:02;21.52;;;14.35;;
58071;SDS011;60383;46.626;18.866;2023-03-23T06:23:29;20.42;;;14.48;;
58071;SDS011;60383;46.626;18.866;2023-03-23T06:25:56;19.33;;;14.25;;
58071;SDS011;60383;46.626;18.866;2023-03-23T06:28:24;18.85;;;14.48;;
58071;SDS011;60383;46.626;18.866;2023-03-23T06:30:49;19.02;;;14.68;;
58071;SDS011;60383;46.626;18.866;2023-03-23T06:33:15;19.70;;;14.65;;
58071;SDS011;60383;46.626;18.866;2023-03-23T06:35:40;15.48;;;13.15;;
58071;SDS011;60383;46.626;18.866;2023-03-23T06:38:05;16.20;;;12.82;;
58071;SDS011;60383;46.626;18.866;2023-03-23T06:40:31;20.73;;;15.02;;
58071;SDS011;60383;46.626;18.866;2023-03-23T06:42:57;20.48;;;14.60;;
58071;SDS011;60383;46.626;18.866;2023-03-23T06:45:24;18.63;;;13.55;;
58071;SDS011;60383;46.626;18.866;2023-03-23T06:47:50;18.40;;;14.10;;
58071;SDS011;60383;46.626;18.866;2023-03-23T06:50:15;19.30;;;13.75;;
58071;SDS011;60383;46.626;18.866;2023-03-23T06:52:45;16.23;;;13.75;;
58071;SDS011;60383;46.626;18.866;2023-03-23T06:55:14;20.25;;;13.68;;
58071;SDS011;60383;46.626;18.866;2023-03-23T06:57:41;19.48;;;14.30;;
58071;SDS011;60383;46.626;18.866;2023-03-23T07:00:07;17.10;;;13.07;;
58071;SDS011;60383;46.626;18.866;2023-03-23T07:02:36;17.85;;;13.82;;
58071;SDS011;60383;46.626;18.866;2023-03-23T07:05:02;18.75;;;14.10;;
58071;SDS011;60383;46.626;18.866;2023-03-23T07:07:28;19.38;;;14.45;;
58071;SDS011;60383;46.626;18.866;2023-03-23T07:09:54;18.75;;;14.05;;
58071;SDS011;60383;46.626;18.866;2023-03-23T07:12:20;16.83;;;14.00;;
58071;SDS011;60383;46.626;18.866;2023-03-23T07:14:46;17.27;;;14.45;;
58071;SDS011;60383;46.626;18.866;2023-03-23T07:17:12;19.48;;;15.60;;
58071;SDS011;60383;46.626;18.866;2023-03-23T07:19:37;17.90;;;14.68;;
58071;SDS011;60383;46.626;18.866;2023-03-23T07:22:04;18.55;;;13.98;;
58071;SDS011;60383;46.626;18.866;2023-03-23T07:24:30;16.13;;;13.73;;
58071;SDS011;60383;46.626;18.866;2023-03-23T07:26:56;19.15;;;13.50;;
58071;SDS011;60383;46.626;18.866;2023-03-23T07:29:22;21.73;;;16.83;;
58071;SDS011;60383;46.626;18.866;2023-03-23T07:31:47;20.23;;;16.90;;
58071;SDS011;60383;46.626;18.866;2023-03-23T07:34:12;16.85;;;12.77;;
58071;SDS011;60383;46.626;18.866;2023-03-23T07:36:38;17.38;;;13.43;;
58071;SDS011;60383;46.626;18.866;2023-03-23T07:39:04;18.08;;;14.07;;
58071;SDS011;60383;46.626;18.866;2023-03-23T07:41:33;19.80;;;15.52;;
58071;SDS011;60383;46.626;18.866;2023-03-23T07:43:58;18.20;;;14.18;;
58071;SDS011;60383;46.626;18.866;2023-03-23T07:46:24;17.08;;;14.00;;
58071;SDS011;60383;46.626;18.866;2023-03-23T07:48:49;16.33;;;13.75;;
58071;SDS011;60383;46.626;18.866;2023-03-23T07:51:15;16.77;;;13.55;;
58071;SDS011;60383;46.626;18.866;2023-03-23T07:53:44;16.83;;;14.02;;
58071;SDS011;60383;46.626;18.866;2023-03-23T07:56:13;18.98;;;13.15;;
58071;SDS011;60383;46.626;18.866;2023-03-23T07:58:42;14.38;;;12.48;;
58071;SDS011;60383;46.626;18.866;2023-03-23T08:01:09;14.07;;;11.70;;
58071;SDS011;60383;46.626;18.866;2023-03-23T08:03:35;16.90;;;14.25;;
58071;SDS011;60383;46.626;18.866;2023-03-23T08:06:00;14.25;;;12.25;;
58071;SDS011;60383;46.626;18.866;2023-03-23T08:08:26;14.40;;;12.70;;
58071;SDS011;60383;46.626;18.866;2023-03-23T08:10:51;14.05;;;11.77;;
58071;SDS011;60383;46.626;18.866;2023-03-23T08:13:17;11.35;;;9.20;;
58071;SDS011;60383;46.626;18.866;2023-03-23T08:15:43;15.05;;;11.18;;
58071;SDS011;60383;46.626;18.866;2023-03-23T08:18:09;15.15;;;12.05;;
58071;SDS011;60383;46.626;18.866;2023-03-23T08:20:35;13.88;;;11.65;;
58071;SDS011;60383;46.626;18.866;2023-03-23T08:23:02;12.52;;;9.88;;
58071;SDS011;60383;46.626;18.866;2023-03-23T08:25:29;14.13;;;8.93;;
58071;SDS011;60383;46.626;18.866;2023-03-23T08:27:56;12.57;;;9.20;;
58071;SDS011;60383;46.626;18.866;2023-03-23T08:30:22;9.73;;;8.55;;
58071;SDS011;60383;46.626;18.866;2023-03-23T08:32:49;9.55;;;7.97;;
58071;SDS011;60383;46.626;18.866;2023-03-23T08:35:16;8.18;;;7.03;;
58071;SDS011;60383;46.626;18.866;2023-03-23T08:37:42;10.38;;;8.20;;
58071;SDS011;60383;46.626;18.866;2023-03-23T08:40:08;9.48;;;7.18;;
58071;SDS011;60383;46.626;18.866;2023-03-23T08:42:40;9.57;;;7.43;;
58071;SDS011;60383;46.626;18.866;2023-03-23T08:45:08;9.20;;;7.32;;
58071;SDS011;60383;46.626;18.866;2023-03-23T08:47:35;9.80;;;8.07;;
58071;SDS011;60383;46.626;18.866;2023-03-23T08:50:03;7.85;;;6.25;;
58071;SDS011;60383;46.626;18.866;2023-03-23T08:52:32;6.35;;;4.93;;
58071;SDS011;60383;46.626;18.866;2023-03-23T08:54:58;7.75;;;5.97;;
58071;SDS011;60383;46.626;18.866;2023-03-23T08:57:24;8.95;;;5.18;;
58071;SDS011;60383;46.626;18.866;2023-03-23T08:59:51;5.97;;;4.43;;
58071;SDS011;60383;46.626;18.866;2023-03-23T09:02:19;5.93;;;4.53;;
58071;SDS011;60383;46.626;18.866;2023-03-23T09:04:45;5.32;;;4.32;;
58071;SDS011;60383;46.626;18.866;2023-03-23T09:07:11;5.50;;;4.07;;
58071;SDS011;60383;46.626;18.866;2023-03-23T09:09:39;4.97;;;3.95;;
58071;SDS011;60383;46.626;18.866;2023-03-23T09:12:06;5.97;;;4.28;;
58071;SDS011;60383;46.626;18.866;2023-03-23T09:14:33;6.03;;;3.95;;
58071;SDS011;60383;46.626;18.866;2023-03-23T09:16:59;4.63;;;3.20;;
58071;SDS011;60383;46.626;18.866;2023-03-23T09:19:25;3.30;;;2.83;;
58071;SDS011;60383;46.626;18.866;2023-03-23T09:21:51;4.22;;;3.38;;
58071;SDS011;60383;46.626;18.866;2023-03-23T09:24:17;5.20;;;3.80;;
58071;SDS011;60383;46.626;18.866;2023-03-23T09:26:44;4.30;;;3.47;;
58071;SDS011;60383;46.626;18.866;2023-03-23T09:29:10;4.53;;;3.55;;
58071;SDS011;60383;46.626;18.866;2023-03-23T09:31:37;4.38;;;3.40;;
58071;SDS011;60383;46.626;18.866;2023-03-23T09:34:05;5.25;;;3.42;;
58071;SDS011;60383;46.626;18.866;2023-03-23T09:39:01;6.88;;;3.05;;
58071;SDS011;60383;46.626;18.866;2023-03-23T09:44:09;5.45;;;3.35;;
58071;SDS011;60383;46.626;18.866;2023-03-23T09:46:47;9.13;;;6.55;;
58071;SDS011;60383;46.626;18.866;2023-03-23T09:49:36;3.40;;;3.10;;
58071;SDS011;60383;46.626;18.866;2023-03-23T09:52:26;6.53;;;4.32;;
58071;SDS011;60383;46.626;18.866;2023-03-23T09:55:03;5.63;;;3.50;;
58071;SDS011;60383;46.626;18.866;2023-03-23T09:57:34;5.70;;;3.40;;
58071;SDS011;60383;46.626;18.866;2023-03-23T10:00:09;3.70;;;3.20;;
58071;SDS011;60383;46.626;18.866;2023-03-23T10:08:01;4.72;;;3.25;;
58071;SDS011;60383;46.626;18.866;2023-03-23T10:10:36;4.10;;;3.58;;
58071;SDS011;60383;46.626;18.866;2023-03-23T10:13:15;4.28;;;2.92;;
58071;SDS011;60383;46.626;18.866;2023-03-23T10:15:48;4.25;;;3.03;;
58071;SDS011;60383;46.626;18.866;2023-03-23T10:18:24;3.40;;;3.10;;
58071;SDS011;60383;46.626;18.866;2023-03-23T10:28:54;4.72;;;3.38;;
58071;SDS011;60383;46.626;18.866;2023-03-23T10:31:23;4.13;;;3.42;;
58071;SDS011;60383;46.626;18.866;2023-03-23T10:33:54;4.28;;;3.38;;
58071;SDS011;60383;46.626;18.866;2023-03-23T10:36:31;2.83;;;2.40;;
58071;SDS011;60383;46.626;18.866;2023-03-23T10:39:18;3.25;;;2.95;;
58071;SDS011;60383;46.626;18.866;2023-03-23T10:41:46;4.28;;;3.50;;
58071;SDS011;60383;46.626;18.866;2023-03-23T10:44:23;3.42;;;2.83;;
58071;SDS011;60383;46.626;18.866;2023-03-23T10:49:27;3.00;;;2.35;;
58071;SDS011;60383;46.626;18.866;2023-03-23T10:57:32;3.25;;;2.83;;
58071;SDS011;60383;46.626;18.866;2023-03-23T10:59:59;5.55;;;3.15;;
58071;SDS011;60383;46.626;18.866;2023-03-23T11:02:46;3.90;;;3.13;;
58071;SDS011;60383;46.626;18.866;2023-03-23T11:05:25;4.03;;;3.38;;
58071;SDS011;60383;46.626;18.866;2023-03-23T11:07:57;3.63;;;3.03;;
58071;SDS011;60383;46.626;18.866;2023-03-23T11:10:34;5.75;;;3.35;;
58071;SDS011;60383;46.626;18.866;2023-03-23T11:13:01;4.68;;;3.00;;
58071;SDS011;60383;46.626;18.866;2023-03-23T11:15:33;3.67;;;3.08;;
58071;SDS011;60383;46.626;18.866;2023-03-23T11:18:06;3.20;;;2.70;;
58071;SDS011;60383;46.626;18.866;2023-03-23T11:20:45;4.43;;;3.10;;
58071;SDS011;60383;46.626;18.866;2023-03-23T11:26:09;4.45;;;3.20;;
58071;SDS011;60383;46.626;18.866;2023-03-23T11:28:35;3.17;;;2.83;;
58071;SDS011;60383;46.626;18.866;2023-03-23T11:31:06;4.18;;;3.10;;
58071;SDS011;60383;46.626;18.866;2023-03-23T11:36:13;3.53;;;2.90;;
58071;SDS011;60383;46.626;18.866;2023-03-23T11:38:40;4.18;;;2.70;;
58071;SDS011;60383;46.626;18.866;2023-03-23T11:41:09;3.40;;;2.67;;
58071;SDS011;60383;46.626;18.866;2023-03-23T11:43:39;3.28;;;2.67;;
58071;SDS011;60383;46.626;18.866;2023-03-23T11:46:11;2.92;;;2.47;;
58071;SDS011;60383;46.626;18.866;2023-03-23T11:48:45;2.92;;;2.63;;
58071;SDS011;60383;46.626;18.866;2023-03-23T11:54:04;4.85;;;2.33;;
58071;SDS011;60383;46.626;18.866;2023-03-23T12:12:44;3.75;;;2.75;;
58071;SDS011;60383;46.626;18.866;2023-03-23T12:15:38;3.25;;;2.80;;
58071;SDS011;60383;46.626;18.866;2023-03-23T12:40:29;5.50;;;2.83;;
58071;SDS011;60383;46.626;18.866;2023-03-23T12:43:01;4.28;;;2.80;;
58071;SDS011;60383;46.626;18.866;2023-03-23T12:48:20;4.15;;;2.53;;
58071;SDS011;60383;46.626;18.866;2023-03-23T12:59:37;3.53;;;3.00;;
58071;SDS011;60383;46.626;18.866;2023-03-23T13:02:12;3.78;;;2.65;;
58071;SDS011;60383;46.626;18.866;2023-03-23T13:07:51;4.72;;;2.60;;
58071;SDS011;60383;46.626;18.866;2023-03-23T13:10:26;3.47;;;2.60;;
58071;SDS011;60383;46.626;18.866;2023-03-23T13:12:54;3.85;;;2.60;;
58071;SDS011;60383;46.626;18.866;2023-03-23T13:21:32;3.00;;;2.70;;
58071;SDS011;60383;46.626;18.866;2023-03-23T13:24:23;3.25;;;2.95;;
58071;SDS011;60383;46.626;18.866;2023-03-23T13:26:50;6.30;;;2.67;;
58071;SDS011;60383;46.626;18.866;2023-03-23T13:31:45;4.00;;;2.20;;
58071;SDS011;60383;46.626;18.866;2023-03-23T13:34:19;2.65;;;2.42;;
58071;SDS011;60383;46.626;18.866;2023-03-23T13:36:57;2.60;;;2.40;;
58071;SDS011;60383;46.626;18.866;2023-03-23T13:39:28;3.28;;;2.97;;
58071;SDS011;60383;46.626;18.866;2023-03-23T14:00:31;6.82;;;4.60;;
58071;SDS011;60383;46.626;18.866;2023-03-23T14:10:34;6.15;;;4.85;;
58071;SDS011;60383;46.626;18.866;2023-03-23T14:13:02;6.05;;;4.90;;
58071;SDS011;60383;46.626;18.866;2023-03-23T14:15:30;14.90;;;12.80;;
58071;SDS011;60383;46.626;18.866;2023-03-23T14:18:03;4.32;;;3.10;;
58071;SDS011;60383;46.626;18.866;2023-03-23T14:20:33;3.53;;;2.70;;
58071;SDS011;60383;46.626;18.866;2023-03-23T14:23:01;2.50;;;2.30;;
58071;SDS011;60383;46.626;18.866;2023-03-23T14:25:27;3.00;;;2.70;;
58071;SDS011;60383;46.626;18.866;2023-03-23T14:27:57;3.22;;;2.45;;
58071;SDS011;60383;46.626;18.866;2023-03-23T14:30:25;5.32;;;2.50;;
58071;SDS011;60383;46.626;18.866;2023-03-23T14:32:52;5.80;;;3.80;;
58071;SDS011;60383;46.626;18.866;2023-03-23T14:35:26;4.68;;;2.90;;
58071;SDS011;60383;46.626;18.866;2023-03-23T14:37:57;3.35;;;2.60;;
58071;SDS011;60383;46.626;18.866;2023-03-23T14:40:25;21.65;;;15.40;;
58071;SDS011;60383;46.626;18.866;2023-03-23T14:42:55;4.90;;;4.40;;
58071;SDS011;60383;46.626;18.866;2023-03-23T14:45:22;4.40;;;2.63;;
58071;SDS011;60383;46.626;18.866;2023-03-23T14:47:51;5.28;;;3.78;;
58071;SDS011;60383;46.626;18.866;2023-03-23T14:50:22;7.20;;;4.75;;
58071;SDS011;60383;46.626;18.866;2023-03-23T14:55:20;2.97;;;2.42;;
58071;SDS011;60383;46.626;18.866;2023-03-23T14:57:47;5.90;;;5.38;;
58071;SDS011;60383;46.626;18.866;2023-03-23T15:00:21;5.97;;;4.45;;
58071;SDS011;60383;46.626;18.866;2023-03-23T15:02:56;8.60;;;7.57;;
58071;SDS011;60383;46.626;18.866;2023-03-23T15:05:29;3.65;;;2.75;;
58071;SDS011;60383;46.626;18.866;2023-03-23T15:08:02;2.72;;;2.45;;
58071;SDS011;60383;46.626;18.866;2023-03-23T15:10:30;2.95;;;2.40;;
58071;SDS011;60383;46.626;18.866;2023-03-23T15:12:56;5.50;;;2.65;;
58071;SDS011;60383;46.626;18.866;2023-03-23T15:15:26;2.72;;;2.50;;
58071;SDS011;60383;46.626;18.866;2023-03-23T15:17:55;3.80;;;2.55;;
58071;SDS011;60383;46.626;18.866;2023-03-23T15:22:53;6.95;;;2.95;;
58071;SDS011;60383;46.626;18.866;2023-03-23T15:28:28;2.90;;;2.70;;
58071;SDS011;60383;46.626;18.866;2023-03-23T15:30:47;3.70;;;2.75;;
58071;SDS011;60383;46.626;18.866;2023-03-23T15:33:15;2.83;;;2.35;;
58071;SDS011;60383;46.626;18.866;2023-03-23T15:35:46;6.05;;;2.70;;
58071;SDS011;60383;46.626;18.866;2023-03-23T15:38:34;3.58;;;2.30;;
58071;SDS011;60383;46.626;18.866;2023-03-23T15:41:01;4.32;;;2.50;;
58071;SDS011;60383;46.626;18.866;2023-03-23T15:43:37;4.20;;;2.50;;
58071;SDS011;60383;46.626;18.866;2023-03-23T15:48:51;3.03;;;2.70;;
58071;SDS011;60383;46.626;18.866;2023-03-23T15:51:18;3.70;;;2.60;;
58071;SDS011;60383;46.626;18.866;2023-03-23T15:53:45;4.97;;;3.20;;
58071;SDS011;60383;46.626;18.866;2023-03-23T15:56:12;5.55;;;2.80;;
58071;SDS011;60383;46.626;18.866;2023-03-23T15:58:38;4.95;;;3.00;;
58071;SDS011;60383;46.626;18.866;2023-03-23T16:01:21;5.13;;;2.70;;
58071;SDS011;60383;46.626;18.866;2023-03-23T16:03:54;3.72;;;3.00;;
58071;SDS011;60383;46.626;18.866;2023-03-23T16:06:23;6.80;;;3.20;;
58071;SDS011;60383;46.626;18.866;2023-03-23T16:08:54;4.80;;;2.95;;
58071;SDS011;60383;46.626;18.866;2023-03-23T16:11:21;4.20;;;3.30;;
58071;SDS011;60383;46.626;18.866;2023-03-23T16:13:48;4.78;;;3.30;;
58071;SDS011;60383;46.626;18.866;2023-03-23T16:18:45;4.28;;;3.42;;
58071;SDS011;60383;46.626;18.866;2023-03-23T16:21:10;4.90;;;3.33;;
58071;SDS011;60383;46.626;18.866;2023-03-23T16:23:36;3.85;;;3.30;;
58071;SDS011;60383;46.626;18.866;2023-03-23T16:26:02;7.18;;;3.58;;
58071;SDS011;60383;46.626;18.866;2023-03-23T16:28:27;4.93;;;3.20;;
58071;SDS011;60383;46.626;18.866;2023-03-23T16:30:53;4.40;;;3.30;;
58071;SDS011;60383;46.626;18.866;2023-03-23T16:33:18;5.93;;;3.55;;
58071;SDS011;60383;46.626;18.866;2023-03-23T16:35:44;4.90;;;2.97;;
58071;SDS011;60383;46.626;18.866;2023-03-23T16:38:11;4.03;;;3.17;;
58071;SDS011;60383;46.626;18.866;2023-03-23T16:40:40;4.25;;;3.40;;
58071;SDS011;60383;46.626;18.866;2023-03-23T16:43:07;4.45;;;3.70;;
58071;SDS011;60383;46.626;18.866;2023-03-23T16:45:33;4.55;;;3.30;;
58071;SDS011;60383;46.626;18.866;2023-03-23T16:47:59;5.07;;;3.72;;
58071;SDS011;60383;46.626;18.866;2023-03-23T16:50:26;4.93;;;3.90;;
58071;SDS011;60383;46.626;18.866;2023-03-23T16:52:54;4.95;;;3.63;;
58071;SDS011;60383;46.626;18.866;2023-03-23T16:55:20;7.03;;;4.07;;
58071;SDS011;60383;46.626;18.866;2023-03-23T16:57:46;6.13;;;3.80;;
58071;SDS011;60383;46.626;18.866;2023-03-23T17:00:13;6.40;;;4.50;;
58071;SDS011;60383;46.626;18.866;2023-03-23T17:02:44;5.57;;;4.10;;
58071;SDS011;60383;46.626;18.866;2023-03-23T17:05:10;5.13;;;4.03;;
58071;SDS011;60383;46.626;18.866;2023-03-23T17:07:37;5.28;;;4.20;;
58071;SDS011;60383;46.626;18.866;2023-03-23T17:10:03;5.43;;;4.32;;
58071;SDS011;60383;46.626;18.866;2023-03-23T17:12:30;4.45;;;3.88;;
58071;SDS011;60383;46.626;18.866;2023-03-23T17:14:56;5.78;;;4.30;;
58071;SDS011;60383;46.626;18.866;2023-03-23T17:17:22;5.60;;;3.90;;